Time;durP1;ratioP1;P1;durP2;ratioP2;P2;SDS_P1;SDS_P2;PMS_P1;PMS_P2;Temp;Humidity;BMP_temperature;BMP_pressure;BME280_temperature;BME280_humidity;BME280_pressure;Samples;Min_cycle;Max_cycle;Signal;HPM_P1;HPM_P2
2021/06/18 00:01:30;;;;;;;5.65;4.80;;;;;;;;;;5011946;28;20042;-70
2021/06/18 00:03:56;;;;;;;6.22;4.53;;;;;;;;;;5004251;28;20036;-66
2021/06/18 00:06:22;;;;;;;6.95;4.60;;;;;;;;;;5010229;28;20033;-67
2021/06/18 00:08:48;;;;;;;6.38;4.72;;;;;;;;;;5002556;28;20030;-70
2021/06/18 00:11:14;;;;;;;7.50;5.13;;;;;;;;;;5011579;28;20083;-70
2021/06/18 00:13:40;;;;;;;7.70;4.95;;;;;;;;;;5011516;28;20488;-64
2021/06/18 00:16:06;;;;;;;9.40;5.15;;;;;;;;;;5011489;28;20077;-63
2021/06/18 00:18:34;;;;;;;9.65;4.90;;;;;;;;;;5011765;28;20037;-67
2021/06/18 00:21:00;;;;;;;9.35;4.97;;;;;;;;;;5011850;28;20018;-63
2021/06/18 00:23:26;;;;;;;8.77;5.13;;;;;;;;;;5008997;28;20034;-72
2021/06/18 00:25:52;;;;;;;7.65;4.75;;;;;;;;;;5010063;28;20030;-65
2021/06/18 00:28:18;;;;;;;10.75;4.85;;;;;;;;;;5011118;28;20040;-72
2021/06/18 00:30:44;;;;;;;6.70;5.10;;;;;;;;;;5004434;28;20018;-71
2021/06/18 00:33:10;;;;;;;7.30;4.60;;;;;;;;;;5010554;28;20391;-71
2021/06/18 00:35:37;;;;;;;6.78;5.05;;;;;;;;;;5011530;28;20467;-63
2021/06/18 00:38:03;;;;;;;10.73;5.32;;;;;;;;;;5010152;28;20064;-73
2021/06/18 00:40:29;;;;;;;6.97;5.18;;;;;;;;;;5006796;28;20018;-64
2021/06/18 00:42:55;;;;;;;9.45;5.70;;;;;;;;;;5008426;28;20029;-70
2021/06/18 00:45:21;;;;;;;9.15;5.25;;;;;;;;;;5004243;28;20385;-72
2021/06/18 00:47:53;;;;;;;9.57;5.30;;;;;;;;;;5001632;28;20025;-63
2021/06/18 00:50:20;;;;;;;10.68;5.50;;;;;;;;;;5005648;28;20052;-69
2021/06/18 00:52:47;;;;;;;7.80;5.43;;;;;;;;;;5002421;28;20031;-63
2021/06/18 00:55:15;;;;;;;9.68;5.20;;;;;;;;;;5013851;28;20538;-63
2021/06/18 00:57:42;;;;;;;6.55;5.40;;;;;;;;;;5013902;28;20029;-70
2021/06/18 01:00:10;;;;;;;9.18;5.32;;;;;;;;;;5008349;28;20028;-63
2021/06/18 01:02:36;;;;;;;10.45;5.57;;;;;;;;;;5004557;28;20029;-68
2021/06/18 01:05:02;;;;;;;9.10;6.07;;;;;;;;;;5014340;28;20028;-68
2021/06/18 01:07:39;;;;;;;12.90;6.38;;;;;;;;;;5008499;28;20030;-64
2021/06/18 01:10:18;;;;;;;8.35;6.45;;;;;;;;;;5012635;28;20404;-70
2021/06/18 01:13:09;;;;;;;10.25;6.75;;;;;;;;;;5002754;28;20042;-70
2021/06/18 01:15:35;;;;;;;9.18;6.70;;;;;;;;;;5003572;28;20087;-66
2021/06/18 01:18:03;;;;;;;11.45;7.15;;;;;;;;;;4997482;28;20048;-66
2021/06/18 01:20:49;;;;;;;10.85;6.75;;;;;;;;;;5013904;28;20034;-70
2021/06/18 01:23:30;;;;;;;10.60;7.32;;;;;;;;;;5004599;28;20134;-70
2021/06/18 01:26:02;;;;;;;12.98;6.80;;;;;;;;;;5012873;28;20140;-69
2021/06/18 01:28:48;;;;;;;10.18;6.70;;;;;;;;;;5009328;28;20034;-64
2021/06/18 01:31:16;;;;;;;12.50;7.03;;;;;;;;;;5012539;28;20038;-68
2021/06/18 01:33:43;;;;;;;9.85;7.22;;;;;;;;;;5003413;28;20105;-66
2021/06/18 01:36:11;;;;;;;13.73;7.18;;;;;;;;;;5014096;28;20118;-67
2021/06/18 01:38:39;;;;;;;8.65;7.10;;;;;;;;;;5012617;28;20057;-68
2021/06/18 01:41:09;;;;;;;12.30;7.22;;;;;;;;;;5010882;28;20029;-69
2021/06/18 01:43:36;;;;;;;9.70;7.00;;;;;;;;;;4994970;28;20136;-65
2021/06/18 01:46:03;;;;;;;10.48;7.13;;;;;;;;;;5011912;28;20021;-67
2021/06/18 01:48:29;;;;;;;12.18;7.47;;;;;;;;;;5008588;28;20061;-75
2021/06/18 01:50:56;;;;;;;11.18;7.18;;;;;;;;;;5003411;28;20034;-65
2021/06/18 01:53:23;;;;;;;12.35;7.00;;;;;;;;;;5008259;28;20070;-73
2021/06/18 01:55:50;;;;;;;11.80;7.35;;;;;;;;;;5007201;28;20030;-71
2021/06/18 01:58:17;;;;;;;10.00;6.93;;;;;;;;;;5011618;28;20026;-64
2021/06/18 02:00:46;;;;;;;11.68;7.43;;;;;;;;;;5003495;28;20049;-71
2021/06/18 02:03:14;;;;;;;13.48;7.28;;;;;;;;;;5011758;28;20046;-73
2021/06/18 02:05:40;;;;;;;10.68;6.88;;;;;;;;;;5009245;28;20426;-71
2021/06/18 02:08:07;;;;;;;9.45;7.43;;;;;;;;;;5012965;28;20030;-67
2021/06/18 02:10:35;;;;;;;12.98;7.47;;;;;;;;;;5002261;28;20572;-64
2021/06/18 02:13:02;;;;;;;11.85;7.22;;;;;;;;;;5011293;28;20038;-67
2021/06/18 02:15:29;;;;;;;12.20;7.32;;;;;;;;;;5010877;28;20049;-69
2021/06/18 02:17:56;;;;;;;10.88;7.20;;;;;;;;;;5013096;28;20022;-67
2021/06/18 02:20:22;;;;;;;15.13;7.32;;;;;;;;;;5012609;28;20490;-68
2021/06/18 02:22:49;;;;;;;8.73;6.05;;;;;;;;;;5012137;28;20387;-66
2021/06/18 02:25:15;;;;;;;9.95;6.85;;;;;;;;;;5012794;28;20105;-71
2021/06/18 02:27:42;;;;;;;9.05;6.57;;;;;;;;;;5012858;28;20506;-71
2021/06/18 02:30:09;;;;;;;10.45;6.40;;;;;;;;;;5013005;28;20030;-66
2021/06/18 02:32:36;;;;;;;12.50;6.20;;;;;;;;;;5008579;28;20041;-63
2021/06/18 02:35:03;;;;;;;12.80;6.70;;;;;;;;;;5012762;28;20607;-63
2021/06/18 02:37:29;;;;;;;11.77;6.25;;;;;;;;;;5011679;28;20030;-64
2021/06/18 02:39:55;;;;;;;13.02;6.68;;;;;;;;;;5010338;28;20430;-64
2021/06/18 02:42:24;;;;;;;11.57;6.43;;;;;;;;;;5012009;28;20057;-67
2021/06/18 02:44:51;;;;;;;11.82;6.07;;;;;;;;;;5008921;28;20042;-71
2021/06/18 02:47:28;;;;;;;11.82;6.55;;;;;;;;;;4999566;28;20030;-65
2021/06/18 02:50:09;;;;;;;15.68;6.63;;;;;;;;;;4999777;28;20022;-69
2021/06/18 02:52:48;;;;;;;10.98;6.35;;;;;;;;;;5011351;28;20037;-64
2021/06/18 02:55:18;;;;;;;13.77;6.82;;;;;;;;;;5011628;28;20041;-71
2021/06/18 02:57:55;;;;;;;10.65;6.35;;;;;;;;;;5007765;28;20030;-63
2021/06/18 03:00:22;;;;;;;10.60;6.53;;;;;;;;;;5012286;28;20038;-70
2021/06/18 03:02:54;;;;;;;12.45;6.60;;;;;;;;;;5011544;28;20026;-64
2021/06/18 03:05:22;;;;;;;12.60;6.63;;;;;;;;;;5008346;28;20479;-64
2021/06/18 03:07:54;;;;;;;11.50;6.85;;;;;;;;;;4998591;28;20050;-63
2021/06/18 03:10:24;;;;;;;9.30;6.97;;;;;;;;;;5011482;28;20040;-69
2021/06/18 03:12:52;;;;;;;11.45;6.97;;;;;;;;;;5004692;28;20026;-69
2021/06/18 03:15:18;;;;;;;9.45;6.15;;;;;;;;;;5010112;28;20041;-63
2021/06/18 03:17:45;;;;;;;9.15;6.25;;;;;;;;;;5010890;28;20105;-64
2021/06/18 03:20:18;;;;;;;8.13;6.15;;;;;;;;;;5011779;28;20033;-68
2021/06/18 03:22:45;;;;;;;10.38;6.20;;;;;;;;;;5011336;28;20030;-63
2021/06/18 03:25:12;;;;;;;10.55;6.28;;;;;;;;;;5011582;28;20060;-65
2021/06/18 03:27:39;;;;;;;10.27;6.65;;;;;;;;;;5012072;28;20022;-64
2021/06/18 03:30:06;;;;;;;9.60;6.38;;;;;;;;;;5011368;28;20057;-66
2021/06/18 03:32:34;;;;;;;11.07;6.60;;;;;;;;;;5007396;28;20085;-64
2021/06/18 03:35:02;;;;;;;10.98;6.45;;;;;;;;;;5008793;28;20030;-66
2021/06/18 03:37:29;;;;;;;9.43;6.90;;;;;;;;;;4997414;28;20188;-63
2021/06/18 03:39:55;;;;;;;13.02;7.20;;;;;;;;;;5004916;28;20383;-68
2021/06/18 03:42:22;;;;;;;12.82;8.20;;;;;;;;;;5010480;28;20037;-65
2021/06/18 03:44:49;;;;;;;12.55;8.55;;;;;;;;;;5020761;28;20079;-69
2021/06/18 03:47:17;;;;;;;17.17;8.82;;;;;;;;;;5031169;28;20030;-66
2021/06/18 03:49:45;;;;;;;14.25;9.32;;;;;;;;;;5031237;28;20033;-70
2021/06/18 03:52:11;;;;;;;14.82;8.63;;;;;;;;;;5031775;28;20029;-69
2021/06/18 03:54:38;;;;;;;14.90;9.45;;;;;;;;;;5031203;28;20034;-63
2021/06/18 03:57:04;;;;;;;14.60;8.80;;;;;;;;;;5031487;28;20028;-66
2021/06/18 03:59:32;;;;;;;12.98;9.32;;;;;;;;;;5031732;28;20029;-70
2021/06/18 04:01:59;;;;;;;14.25;9.60;;;;;;;;;;5031152;28;20017;-71
2021/06/18 04:04:27;;;;;;;15.05;9.15;;;;;;;;;;5031328;28;20025;-66
2021/06/18 04:06:53;;;;;;;15.90;9.52;;;;;;;;;;5030906;28;20112;-69
2021/06/18 04:09:19;;;;;;;32.05;11.20;;;;;;;;;;5031504;28;20033;-63
2021/06/18 04:11:46;;;;;;;16.58;10.35;;;;;;;;;;5030560;28;20100;-67
2021/06/18 04:14:13;;;;;;;18.25;9.30;;;;;;;;;;5030866;28;20054;-68
2021/06/18 04:16:39;;;;;;;12.02;9.88;;;;;;;;;;5030046;28;20099;-65
2021/06/18 04:19:07;;;;;;;15.27;10.05;;;;;;;;;;5031407;28;20034;-69
2021/06/18 04:21:34;;;;;;;13.55;8.80;;;;;;;;;;5029231;28;20474;-69
2021/06/18 04:24:00;;;;;;;13.02;9.05;;;;;;;;;;5022908;28;20078;-69
2021/06/18 04:26:26;;;;;;;16.42;8.50;;;;;;;;;;5033517;28;20513;-63
2021/06/18 04:28:53;;;;;;;10.30;7.80;;;;;;;;;;5034659;28;20025;-69
2021/06/18 04:31:19;;;;;;;17.05;8.25;;;;;;;;;;5030342;28;20041;-69
2021/06/18 04:33:47;;;;;;;15.32;8.18;;;;;;;;;;5042574;28;20025;-69
2021/06/18 04:36:13;;;;;;;12.60;7.97;;;;;;;;;;5032948;28;20144;-70
2021/06/18 04:38:42;;;;;;;12.40;7.80;;;;;;;;;;5032999;28;20463;-74
2021/06/18 04:41:08;;;;;;;14.45;7.80;;;;;;;;;;5015077;28;20026;-70
2021/06/18 04:43:34;;;;;;;17.13;8.23;;;;;;;;;;5019685;28;20488;-67
2021/06/18 04:46:01;;;;;;;20.13;7.93;;;;;;;;;;5008523;28;20058;-84
2021/06/18 04:48:28;;;;;;;13.85;7.80;;;;;;;;;;4995392;28;20095;-75
2021/06/18 04:50:54;;;;;;;18.13;8.40;;;;;;;;;;5013117;28;20022;-75
2021/06/18 04:53:20;;;;;;;13.30;7.25;;;;;;;;;;5011224;28;20112;-68
2021/06/18 04:55:47;;;;;;;15.73;7.68;;;;;;;;;;5013280;28;20030;-64
2021/06/18 04:58:13;;;;;;;16.73;8.18;;;;;;;;;;5012452;28;20033;-69
2021/06/18 05:00:39;;;;;;;20.45;9.85;;;;;;;;;;5006959;28;20639;-69
2021/06/18 05:03:05;;;;;;;19.45;9.35;;;;;;;;;;5010378;28;20030;-64
2021/06/18 05:05:32;;;;;;;17.50;8.77;;;;;;;;;;5008304;28;20105;-68
2021/06/18 05:07:58;;;;;;;14.25;8.48;;;;;;;;;;5012984;28;20014;-70
2021/06/18 05:10:25;;;;;;;14.35;8.95;;;;;;;;;;5012621;28;20037;-69
2021/06/18 05:12:51;;;;;;;12.38;9.25;;;;;;;;;;5013323;28;20026;-70
2021/06/18 05:15:17;;;;;;;16.38;9.63;;;;;;;;;;5013783;28;20372;-70
2021/06/18 05:17:44;;;;;;;14.10;8.77;;;;;;;;;;5008406;28;20021;-69
2021/06/18 05:20:12;;;;;;;14.32;9.13;;;;;;;;;;5012796;28;20022;-67
2021/06/18 05:22:38;;;;;;;13.77;9.05;;;;;;;;;;5012135;28;20419;-65
2021/06/18 05:25:04;;;;;;;14.35;9.52;;;;;;;;;;5012893;28;20018;-66
2021/06/18 05:27:30;;;;;;;20.88;9.18;;;;;;;;;;5010254;28;20030;-65
2021/06/18 05:29:56;;;;;;;14.88;9.18;;;;;;;;;;5007324;28;20046;-66
2021/06/18 05:32:23;;;;;;;17.05;8.68;;;;;;;;;;5013695;28;20048;-67
2021/06/18 05:34:49;;;;;;;14.25;8.10;;;;;;;;;;5003190;28;20044;-69
2021/06/18 05:37:15;;;;;;;14.65;8.57;;;;;;;;;;5007257;28;20022;-66
2021/06/18 05:39:48;;;;;;;13.68;8.13;;;;;;;;;;5012991;28;20026;-68
2021/06/18 05:42:14;;;;;;;11.50;7.65;;;;;;;;;;5016963;28;20026;-67
2021/06/18 05:44:40;;;;;;;13.77;8.77;;;;;;;;;;5013276;28;20049;-69
2021/06/18 05:47:06;;;;;;;14.60;8.50;;;;;;;;;;5013205;28;20033;-68
2021/06/18 05:49:32;;;;;;;17.10;8.80;;;;;;;;;;5011941;28;20054;-65
2021/06/18 05:51:59;;;;;;;13.10;8.55;;;;;;;;;;5013064;28;20045;-67
2021/06/18 05:54:25;;;;;;;18.23;9.02;;;;;;;;;;5003296;28;20145;-67
2021/06/18 05:56:51;;;;;;;17.00;8.48;;;;;;;;;;5015874;28;20030;-64
2021/06/18 05:59:18;;;;;;;17.25;8.05;;;;;;;;;;5010226;28;20079;-66
2021/06/18 06:01:44;;;;;;;17.27;8.70;;;;;;;;;;5012734;28;20030;-65
2021/06/18 06:04:12;;;;;;;19.65;9.60;;;;;;;;;;5013000;28;20040;-66
2021/06/18 06:06:38;;;;;;;15.40;9.65;;;;;;;;;;5012065;28;20172;-69
2021/06/18 06:09:04;;;;;;;16.70;9.60;;;;;;;;;;5009881;28;20036;-64
2021/06/18 06:11:31;;;;;;;15.95;9.10;;;;;;;;;;5010335;28;20080;-67
2021/06/18 06:14:00;;;;;;;23.70;10.10;;;;;;;;;;5011522;28;20121;-68
2021/06/18 06:16:26;;;;;;;15.15;9.60;;;;;;;;;;5012515;28;20022;-66
2021/06/18 06:18:52;;;;;;;18.88;8.90;;;;;;;;;;5014461;28;20112;-81
2021/06/18 06:21:18;;;;;;;18.73;9.23;;;;;;;;;;5011281;28;20052;-82
2021/06/18 06:23:44;;;;;;;14.57;8.98;;;;;;;;;;5012561;28;20075;-82
2021/06/18 06:26:13;;;;;;;22.92;10.27;;;;;;;;;;5011111;28;20372;-85
2021/06/18 06:28:39;;;;;;;18.70;10.30;;;;;;;;;;4993408;28;20045;-73
2021/06/18 06:31:07;;;;;;;16.48;8.85;;;;;;;;;;5012646;28;20503;-69
2021/06/18 06:33:33;;;;;;;14.85;8.60;;;;;;;;;;5015397;28;20033;-70
2021/06/18 06:35:59;;;;;;;19.13;13.05;;;;;;;;;;5015234;28;20042;-71
2021/06/18 06:38:25;;;;;;;22.38;14.00;;;;;;;;;;4996193;28;20064;-68
2021/06/18 06:40:54;;;;;;;45.13;13.85;;;;;;;;;;5011531;28;20402;-79
2021/06/18 06:43:20;;;;;;;53.78;16.83;;;;;;;;;;5014270;28;20160;-76
2021/06/18 06:45:47;;;;;;;23.52;14.57;;;;;;;;;;5011302;28;20026;-76
2021/06/18 06:48:13;;;;;;;26.20;15.05;;;;;;;;;;5011617;28;20052;-80
2021/06/18 06:50:39;;;;;;;20.70;15.23;;;;;;;;;;5009544;28;20407;-68
2021/06/18 06:53:07;;;;;;;21.83;14.15;;;;;;;;;;5006864;28;20397;-65
2021/06/18 06:55:33;;;;;;;21.88;13.70;;;;;;;;;;5006543;28;20644;-70
2021/06/18 06:57:59;;;;;;;21.48;13.07;;;;;;;;;;5010369;28;20021;-70
2021/06/18 07:00:25;;;;;;;23.10;13.05;;;;;;;;;;5005969;28;20105;-67
2021/06/18 07:02:52;;;;;;;19.10;12.10;;;;;;;;;;5013089;28;20096;-68
2021/06/18 07:05:18;;;;;;;24.45;13.60;;;;;;;;;;5008555;28;20044;-72
2021/06/18 07:07:44;;;;;;;17.50;12.35;;;;;;;;;;5011076;28;20021;-72
2021/06/18 07:10:11;;;;;;;23.30;11.63;;;;;;;;;;5010583;28;20049;-71
2021/06/18 07:12:37;;;;;;;65.57;13.75;;;;;;;;;;5010803;28;20092;-72
2021/06/18 07:15:04;;;;;;;22.80;11.98;;;;;;;;;;5011003;28;20498;-68
2021/06/18 07:17:30;;;;;;;15.43;11.02;;;;;;;;;;5002883;28;20343;-69
2021/06/18 07:19:57;;;;;;;17.42;10.80;;;;;;;;;;5012347;28;20022;-68
2021/06/18 07:22:24;;;;;;;22.85;11.32;;;;;;;;;;5014960;28;20054;-68
2021/06/18 07:24:50;;;;;;;21.95;11.38;;;;;;;;;;5010945;28;20025;-64
2021/06/18 07:27:16;;;;;;;19.58;10.77;;;;;;;;;;5011351;28;20057;-67
2021/06/18 07:29:43;;;;;;;14.77;10.38;;;;;;;;;;5008013;28;20104;-83
2021/06/18 07:32:09;;;;;;;17.30;9.63;;;;;;;;;;5008412;28;20032;-80
2021/06/18 07:34:36;;;;;;;15.07;8.30;;;;;;;;;;5007861;28;20034;-75
2021/06/18 07:37:02;;;;;;;11.68;6.97;;;;;;;;;;5011861;28;20037;-79
2021/06/18 07:39:28;;;;;;;15.15;7.68;;;;;;;;;;5010095;28;20034;-77
2021/06/18 07:41:54;;;;;;;10.63;7.07;;;;;;;;;;5014910;28;20018;-69
2021/06/18 07:44:20;;;;;;;13.10;7.07;;;;;;;;;;5009865;28;20183;-68
2021/06/18 07:46:46;;;;;;;14.30;7.32;;;;;;;;;;5011505;28;20415;-68
2021/06/18 07:49:13;;;;;;;11.07;7.43;;;;;;;;;;5008044;28;20500;-68
2021/06/18 07:51:39;;;;;;;19.55;8.18;;;;;;;;;;5011571;28;20069;-68
2021/06/18 07:54:05;;;;;;;9.20;6.60;;;;;;;;;;5010188;28;20036;-68
2021/06/18 07:56:40;;;;;;;13.25;7.13;;;;;;;;;;5009943;28;20057;-69
2021/06/18 07:59:06;;;;;;;17.30;7.10;;;;;;;;;;5014022;28;20081;-66
2021/06/18 08:01:32;;;;;;;10.68;7.32;;;;;;;;;;5014830;28;20022;-67
2021/06/18 08:03:58;;;;;;;16.77;8.68;;;;;;;;;;5015204;28;20073;-66
2021/06/18 08:06:24;;;;;;;12.70;7.80;;;;;;;;;;5011811;28;20484;-69
2021/06/18 08:08:50;;;;;;;13.60;8.60;;;;;;;;;;5014739;28;20497;-68
2021/06/18 08:11:19;;;;;;;11.98;7.32;;;;;;;;;;5013883;28;20112;-67
2021/06/18 08:13:45;;;;;;;10.82;8.00;;;;;;;;;;5014308;28;20169;-64
2021/06/18 08:16:11;;;;;;;18.95;8.25;;;;;;;;;;5014097;28;20018;-65
2021/06/18 08:18:38;;;;;;;18.33;8.02;;;;;;;;;;5014943;28;20053;-62
2021/06/18 08:21:09;;;;;;;13.38;7.60;;;;;;;;;;5014200;28;20026;-64
2021/06/18 08:23:35;;;;;;;14.57;8.27;;;;;;;;;;5014753;28;20050;-63
2021/06/18 08:26:01;;;;;;;17.48;8.65;;;;;;;;;;5014726;28;20017;-67
2021/06/18 08:28:30;;;;;;;16.77;8.30;;;;;;;;;;5013630;28;20041;-69
2021/06/18 08:30:57;;;;;;;14.15;8.75;;;;;;;;;;5013942;28;20030;-68
2021/06/18 08:33:24;;;;;;;13.13;7.88;;;;;;;;;;5014428;28;20033;-68
2021/06/18 08:35:50;;;;;;;55.08;9.18;;;;;;;;;;5014534;28;20030;-78
2021/06/18 08:38:16;;;;;;;12.93;8.40;;;;;;;;;;4997205;28;20034;-66
2021/06/18 08:40:42;;;;;;;16.55;8.98;;;;;;;;;;5014539;28;20068;-65
2021/06/18 08:43:08;;;;;;;14.07;6.57;;;;;;;;;;4992794;28;20030;-65
2021/06/18 08:45:34;;;;;;;8.77;5.20;;;;;;;;;;5009659;28;20025;-64
2021/06/18 08:48:01;;;;;;;8.45;4.50;;;;;;;;;;5012952;28;20030;-67
2021/06/18 08:50:27;;;;;;;7.97;4.90;;;;;;;;;;5014977;28;20099;-66
2021/06/18 08:52:55;;;;;;;10.50;4.78;;;;;;;;;;5018962;28;20109;-71
2021/06/18 08:55:22;;;;;;;9.35;5.20;;;;;;;;;;5011138;28;20045;-66
2021/06/18 08:57:54;;;;;;;8.63;4.70;;;;;;;;;;5013477;28;20057;-67
2021/06/18 09:00:22;;;;;;;16.30;6.30;;;;;;;;;;5013103;28;20030;-64
2021/06/18 09:02:48;;;;;;;8.27;4.40;;;;;;;;;;5012955;28;20041;-64
2021/06/18 09:05:15;;;;;;;8.73;4.32;;;;;;;;;;5005973;28;20028;-68
2021/06/18 09:07:51;;;;;;;6.55;4.43;;;;;;;;;;5000468;28;20022;-71
2021/06/18 09:10:33;;;;;;;6.00;4.63;;;;;;;;;;5001577;28;20125;-70
2021/06/18 09:13:12;;;;;;;7.32;4.90;;;;;;;;;;5000029;28;20034;-67
2021/06/18 09:15:39;;;;;;;10.35;5.00;;;;;;;;;;5002532;28;20508;-67
2021/06/18 09:18:22;;;;;;;7.90;4.32;;;;;;;;;;5003111;28;20156;-67
2021/06/18 09:20:48;;;;;;;9.00;4.35;;;;;;;;;;5011771;28;20040;-68
2021/06/18 09:23:26;;;;;;;12.05;4.90;;;;;;;;;;5016136;28;20032;-68
2021/06/18 09:26:11;;;;;;;7.82;3.90;;;;;;;;;;5016764;28;20479;-67
2021/06/18 09:28:55;;;;;;;6.82;3.60;;;;;;;;;;5012604;28;20503;-73
2021/06/18 09:31:25;;;;;;;8.07;4.18;;;;;;;;;;4997977;28;20113;-73
2021/06/18 09:33:51;;;;;;;6.68;4.30;;;;;;;;;;5008781;28;20483;-71
2021/06/18 09:36:17;;;;;;;7.80;3.90;;;;;;;;;;5009451;28;20037;-68
2021/06/18 09:38:48;;;;;;;8.77;4.25;;;;;;;;;;5010914;28;20100;-69
2021/06/18 09:41:33;;;;;;;8.90;4.28;;;;;;;;;;5011612;28;20487;-67
2021/06/18 09:44:04;;;;;;;8.40;4.63;;;;;;;;;;5011252;28;20585;-70
2021/06/18 09:46:47;;;;;;;9.93;4.93;;;;;;;;;;5007922;28;20050;-71
2021/06/18 09:49:33;;;;;;;9.48;4.40;;;;;;;;;;5004104;28;20026;-70
2021/06/18 09:51:59;;;;;;;8.25;4.43;;;;;;;;;;4951576;28;20035;-68
2021/06/18 09:54:32;;;;;;;8.82;4.10;;;;;;;;;;4950569;28;20054;-75
2021/06/18 09:57:05;;;;;;;20.38;5.50;;;;;;;;;;4955656;28;20031;-75
2021/06/18 09:59:31;;;;;;;9.82;4.60;;;;;;;;;;4952633;28;20027;-73
2021/06/18 10:01:57;;;;;;;6.80;4.28;;;;;;;;;;4952784;28;20043;-83
2021/06/18 10:04:26;;;;;;;11.75;4.20;;;;;;;;;;4955394;28;20067;-79
2021/06/18 10:06:52;;;;;;;12.88;4.80;;;;;;;;;;4951093;28;20073;-84
2021/06/18 10:09:18;;;;;;;6.40;4.03;;;;;;;;;;4952563;28;20080;-77
2021/06/18 10:11:47;;;;;;;7.03;4.43;;;;;;;;;;4952704;28;20114;-80
2021/06/18 10:14:14;;;;;;;7.40;4.65;;;;;;;;;;4953154;28;20141;-66
2021/06/18 10:16:41;;;;;;;10.10;4.10;;;;;;;;;;4953032;28;20094;-68
2021/06/18 10:19:07;;;;;;;8.55;4.00;;;;;;;;;;4957008;28;20427;-64
2021/06/18 10:21:35;;;;;;;6.60;4.32;;;;;;;;;;4950591;28;20035;-64
2021/06/18 10:24:03;;;;;;;11.32;4.10;;;;;;;;;;4950691;28;20030;-65
2021/06/18 10:26:30;;;;;;;6.57;3.90;;;;;;;;;;4947672;28;20062;-64
2021/06/18 10:29:00;;;;;;;28.73;5.55;;;;;;;;;;4977995;28;20152;-63
2021/06/18 10:31:36;;;;;;;6.32;3.97;;;;;;;;;;5007975;28;20026;-68
2021/06/18 10:34:16;;;;;;;6.82;4.25;;;;;;;;;;5006744;28;20073;-65
2021/06/18 10:36:42;;;;;;;8.55;4.63;;;;;;;;;;5012446;28;20030;-62
2021/06/18 10:39:14;;;;;;;8.70;4.50;;;;;;;;;;5011816;28;20497;-68
2021/06/18 10:41:44;;;;;;;6.63;4.40;;;;;;;;;;5012850;28;20040;-65
2021/06/18 10:44:10;;;;;;;17.33;4.32;;;;;;;;;;5001720;28;20050;-62
2021/06/18 10:46:37;;;;;;;17.02;5.53;;;;;;;;;;5008875;28;20034;-65
2021/06/18 10:49:03;;;;;;;8.13;4.60;;;;;;;;;;5010926;28;20026;-61
2021/06/18 10:51:29;;;;;;;8.32;4.55;;;;;;;;;;5010765;28;20022;-64
2021/06/18 10:54:02;;;;;;;9.32;4.20;;;;;;;;;;5009621;28;20088;-66
2021/06/18 10:56:50;;;;;;;12.40;4.78;;;;;;;;;;5009172;28;20034;-69
2021/06/18 10:59:28;;;;;;;9.15;4.40;;;;;;;;;;5014029;28;20517;-70
2021/06/18 11:01:54;;;;;;;7.00;4.35;;;;;;;;;;5012408;28;20025;-68
2021/06/18 11:04:51;;;;;;;5.70;4.05;;;;;;;;;;5012677;28;20026;-68
2021/06/18 11:07:19;;;;;;;6.90;3.88;;;;;;;;;;5005707;28;20108;-69
2021/06/18 11:09:45;;;;;;;8.20;4.20;;;;;;;;;;5011804;28;20030;-73
2021/06/18 11:12:24;;;;;;;8.77;3.80;;;;;;;;;;5010217;28;20089;-68
2021/06/18 11:14:56;;;;;;;5.10;3.55;;;;;;;;;;5006641;28;20493;-66
2021/06/18 11:17:38;;;;;;;10.43;4.22;;;;;;;;;;5010886;28;20026;-66
2021/06/18 11:20:05;;;;;;;7.50;3.90;;;;;;;;;;5012578;28;20117;-74
2021/06/18 11:22:49;;;;;;;7.78;4.43;;;;;;;;;;5009668;28;20030;-76
2021/06/18 11:25:36;;;;;;;6.85;4.05;;;;;;;;;;5015240;28;20374;-77
2021/06/18 11:28:24;;;;;;;6.70;4.10;;;;;;;;;;5006220;28;20033;-79
2021/06/18 11:31:07;;;;;;;10.32;4.63;;;;;;;;;;5010924;28;20911;-67
2021/06/18 11:33:37;;;;;;;9.40;4.45;;;;;;;;;;5007267;28;20030;-70
2021/06/18 11:36:07;;;;;;;25.48;5.20;;;;;;;;;;5004217;28;20029;-67
2021/06/18 11:38:34;;;;;;;13.23;4.10;;;;;;;;;;5008753;28;20487;-67
2021/06/18 11:41:01;;;;;;;10.70;4.32;;;;;;;;;;5011412;28;20032;-66
2021/06/18 11:43:28;;;;;;;8.93;4.22;;;;;;;;;;5010780;28;20403;-64
2021/06/18 11:45:54;;;;;;;15.63;4.05;;;;;;;;;;5010728;28;20029;-64
2021/06/18 11:48:20;;;;;;;31.48;5.50;;;;;;;;;;5010486;28;20034;-69
2021/06/18 11:50:47;;;;;;;7.90;3.60;;;;;;;;;;5010813;28;20037;-70
2021/06/18 11:53:14;;;;;;;7.57;3.90;;;;;;;;;;5009152;28;20157;-66
2021/06/18 11:55:43;;;;;;;8.07;3.60;;;;;;;;;;5010527;28;20401;-72
2021/06/18 11:58:28;;;;;;;8.65;3.38;;;;;;;;;;5008830;28;20066;-64
2021/06/18 12:00:54;;;;;;;5.30;3.30;;;;;;;;;;5012086;28;20033;-65
2021/06/18 12:03:31;;;;;;;6.20;3.50;;;;;;;;;;5010926;28;20029;-65
2021/06/18 12:05:58;;;;;;;10.85;3.40;;;;;;;;;;5007838;28;20052;-63
2021/06/18 12:08:24;;;;;;;19.60;4.35;;;;;;;;;;5009651;28;20064;-69
2021/06/18 12:10:50;;;;;;;9.90;3.50;;;;;;;;;;5008401;28;20076;-67
2021/06/18 12:13:16;;;;;;;8.27;3.90;;;;;;;;;;5008345;28;20065;-67
2021/06/18 12:15:43;;;;;;;8.38;3.85;;;;;;;;;;5008465;28;20038;-65
2021/06/18 12:18:09;;;;;;;12.07;3.80;;;;;;;;;;5007036;28;20036;-66
2021/06/18 12:20:36;;;;;;;8.25;3.97;;;;;;;;;;5007134;28;20030;-66
2021/06/18 12:23:04;;;;;;;6.38;3.72;;;;;;;;;;5010892;28;20030;-68
2021/06/18 12:25:30;;;;;;;5.75;3.30;;;;;;;;;;5010264;28;20487;-66
2021/06/18 12:27:57;;;;;;;5.70;3.60;;;;;;;;;;5010225;28;20026;-67
2021/06/18 12:30:24;;;;;;;8.40;3.13;;;;;;;;;;5008120;28;20361;-65
2021/06/18 12:32:51;;;;;;;6.20;3.30;;;;;;;;;;5011318;28;20029;-67
2021/06/18 12:35:18;;;;;;;6.95;3.85;;;;;;;;;;5007430;28;20507;-66
2021/06/18 12:37:52;;;;;;;13.75;4.38;;;;;;;;;;5010484;28;20052;-69
2021/06/18 12:40:29;;;;;;;8.10;3.28;;;;;;;;;;5009882;28;20083;-70
2021/06/18 12:42:59;;;;;;;6.68;3.42;;;;;;;;;;5000202;28;20018;-68
2021/06/18 12:45:32;;;;;;;6.75;3.33;;;;;;;;;;5007560;28;20048;-66
2021/06/18 12:47:57;;;;;;;;;;;;;;;;;;5004523;28;20033;-66
2021/06/18 12:50:34;;;;;;;4.68;3.30;;;;;;;;;;5009584;28;19910;-64
2021/06/18 12:53:07;;;;;;;4.07;3.40;;;;;;;;;;5012663;28;20535;-65
2021/06/18 12:55:35;;;;;;;;;;;;;;;;;;5014808;28;20029;-67
2021/06/18 12:58:02;;;;;;;5.45;3.40;;;;;;;;;;5013169;28;19909;-70
2021/06/18 13:00:29;;;;;;;5.07;3.42;;;;;;;;;;5014093;28;20502;-69
2021/06/18 13:02:58;;;;;;;6.50;3.10;;;;;;;;;;5013865;28;20064;-67
2021/06/18 13:05:27;;;;;;;6.50;3.42;;;;;;;;;;5012142;28;20029;-66
2021/06/18 13:07:53;;;;;;;5.60;3.30;;;;;;;;;;5012620;28;20021;-69
2021/06/18 13:10:19;;;;;;;6.50;3.22;;;;;;;;;;5011872;28;20033;-69
2021/06/18 13:12:55;;;;;;;41.10;4.85;;;;;;;;;;5010577;28;20034;-67
2021/06/18 13:15:28;;;;;;;5.63;2.97;;;;;;;;;;5012244;28;20387;-70
2021/06/18 13:17:56;;;;;;;7.28;2.97;;;;;;;;;;5013485;28;20476;-70
2021/06/18 13:20:29;;;;;;;5.03;2.78;;;;;;;;;;5012801;28;20546;-67
2021/06/18 13:22:54;;;;;;;;;;;;;;;;;;5013457;28;20029;-67
2021/06/18 13:25:27;;;;;;;10.05;3.08;;;;;;;;;;5012652;28;19913;-67
2021/06/18 13:27:53;;;;;;;4.95;2.70;;;;;;;;;;5013494;28;20030;-67
2021/06/18 13:30:19;;;;;;;6.15;3.10;;;;;;;;;;5011946;28;20025;-65
2021/06/18 13:32:54;;;;;;;7.65;3.40;;;;;;;;;;5009821;28;20026;-67
2021/06/18 13:35:21;;;;;;;5.15;2.80;;;;;;;;;;5005711;28;20127;-66
2021/06/18 13:37:57;;;;;;;7.00;2.97;;;;;;;;;;5012387;28;20018;-65
2021/06/18 13:40:41;;;;;;;5.30;2.75;;;;;;;;;;5010760;28;20032;-66
2021/06/18 13:43:08;;;;;;;15.27;2.80;;;;;;;;;;5010517;28;20120;-66
2021/06/18 13:45:34;;;;;;;4.85;2.42;;;;;;;;;;5013143;28;20037;-65
2021/06/18 13:48:00;;;;;;;5.05;2.45;;;;;;;;;;5013605;28;20022;-66
2021/06/18 13:50:27;;;;;;;7.05;2.70;;;;;;;;;;5012782;28;20096;-69
2021/06/18 13:52:53;;;;;;;3.15;2.60;;;;;;;;;;5010621;28;20646;-67
2021/06/18 13:55:19;;;;;;;7.15;2.85;;;;;;;;;;5006412;28;20129;-66
2021/06/18 13:57:46;;;;;;;6.82;2.72;;;;;;;;;;5003880;28;20025;-69
2021/06/18 14:00:12;;;;;;;5.03;2.63;;;;;;;;;;5010180;28;20021;-71
2021/06/18 14:02:39;;;;;;;4.75;2.80;;;;;;;;;;5009158;28;20399;-67
2021/06/18 14:05:05;;;;;;;4.32;2.63;;;;;;;;;;5012806;28;20022;-70
2021/06/18 14:07:31;;;;;;;2.83;2.50;;;;;;;;;;5013774;28;20483;-67
2021/06/18 14:09:57;;;;;;;8.05;2.90;;;;;;;;;;5013135;28;20079;-67
2021/06/18 14:12:23;;;;;;;3.42;2.70;;;;;;;;;;5013769;28;20495;-70
2021/06/18 14:15:01;;;;;;;4.10;2.78;;;;;;;;;;5012520;28;20398;-66
2021/06/18 14:17:31;;;;;;;30.58;3.78;;;;;;;;;;5013739;28;20018;-72
2021/06/18 14:19:57;;;;;;;5.00;2.55;;;;;;;;;;5005762;28;20026;-70
2021/06/18 14:22:23;;;;;;;6.45;2.80;;;;;;;;;;5006822;28;20156;-68
2021/06/18 14:24:52;;;;;;;7.65;3.13;;;;;;;;;;5012106;28;20041;-68
2021/06/18 14:27:18;;;;;;;5.25;2.70;;;;;;;;;;5011657;28;20022;-68
2021/06/18 14:29:47;;;;;;;5.28;2.72;;;;;;;;;;5011546;28;20033;-66
2021/06/18 14:32:13;;;;;;;3.58;2.80;;;;;;;;;;5010112;28;20018;-68
2021/06/18 14:34:41;;;;;;;4.22;2.78;;;;;;;;;;5009286;28;20124;-69
2021/06/18 14:37:07;;;;;;;5.22;2.72;;;;;;;;;;5008940;28;20026;-68
2021/06/18 14:39:34;;;;;;;4.72;2.70;;;;;;;;;;5010507;28;20072;-67
2021/06/18 14:42:00;;;;;;;15.23;3.47;;;;;;;;;;5010017;28;20038;-67
2021/06/18 14:44:26;;;;;;;12.90;3.42;;;;;;;;;;5012337;28;20053;-69